sensor_id;sensor_type;location;lat;lon;timestamp;P1;durP1;ratioP1;P2;durP2;ratioP2
65853;SDS011;52627;48.838;2.402;2024-01-30T00:02:02;15.80;;;10.70;;
65853;SDS011;52627;48.838;2.402;2024-01-30T00:04:30;15.70;;;11.40;;
65853;SDS011;52627;48.838;2.402;2024-01-30T00:06:57;14.30;;;10.20;;
65853;SDS011;52627;48.838;2.402;2024-01-30T00:09:25;15.90;;;10.60;;
65853;SDS011;52627;48.838;2.402;2024-01-30T00:12:02;14.70;;;11.10;;
65853;SDS011;52627;48.838;2.402;2024-01-30T00:14:29;14.40;;;9.90;;
65853;SDS011;52627;48.838;2.402;2024-01-30T00:16:57;17.80;;;11.40;;
65853;SDS011;52627;48.838;2.402;2024-01-30T00:19:25;14.90;;;10.80;;
65853;SDS011;52627;48.838;2.402;2024-01-30T00:21:52;17.30;;;11.20;;
65853;SDS011;52627;48.838;2.402;2024-01-30T00:24:20;15.30;;;10.70;;
65853;SDS011;52627;48.838;2.402;2024-01-30T00:26:47;18.40;;;11.40;;
65853;SDS011;52627;48.838;2.402;2024-01-30T00:29:15;15.70;;;11.40;;
65853;SDS011;52627;48.838;2.402;2024-01-30T00:31:47;14.40;;;10.40;;
65853;SDS011;52627;48.838;2.402;2024-01-30T00:34:32;15.50;;;10.50;;
65853;SDS011;52627;48.838;2.402;2024-01-30T00:37:00;15.40;;;10.40;;
65853;SDS011;52627;48.838;2.402;2024-01-30T00:39:28;16.40;;;10.50;;
65853;SDS011;52627;48.838;2.402;2024-01-30T00:41:55;14.40;;;10.40;;
65853;SDS011;52627;48.838;2.402;2024-01-30T00:44:53;15.80;;;10.20;;
65853;SDS011;52627;48.838;2.402;2024-01-30T00:47:23;14.30;;;9.80;;
65853;SDS011;52627;48.838;2.402;2024-01-30T00:49:50;17.50;;;10.60;;
65853;SDS011;52627;48.838;2.402;2024-01-30T00:52:37;15.70;;;9.80;;
65853;SDS011;52627;48.838;2.402;2024-01-30T00:55:06;18.90;;;10.70;;
65853;SDS011;52627;48.838;2.402;2024-01-30T00:57:34;12.90;;;9.70;;
65853;SDS011;52627;48.838;2.402;2024-01-30T01:00:02;13.90;;;9.60;;
65853;SDS011;52627;48.838;2.402;2024-01-30T01:03:07;15.00;;;9.50;;
65853;SDS011;52627;48.838;2.402;2024-01-30T01:05:36;13.10;;;8.80;;
65853;SDS011;52627;48.838;2.402;2024-01-30T01:08:04;14.10;;;9.80;;
65853;SDS011;52627;48.838;2.402;2024-01-30T01:10:31;13.50;;;9.00;;
65853;SDS011;52627;48.838;2.402;2024-01-30T01:13:00;14.60;;;9.60;;
65853;SDS011;52627;48.838;2.402;2024-01-30T01:15:42;14.00;;;9.80;;
65853;SDS011;52627;48.838;2.402;2024-01-30T01:18:10;13.90;;;8.70;;
65853;SDS011;52627;48.838;2.402;2024-01-30T01:20:37;14.40;;;9.90;;
65853;SDS011;52627;48.838;2.402;2024-01-30T01:23:07;14.40;;;9.90;;
65853;SDS011;52627;48.838;2.402;2024-01-30T01:25:35;13.70;;;9.30;;
65853;SDS011;52627;48.838;2.402;2024-01-30T01:28:03;12.20;;;8.70;;
65853;SDS011;52627;48.838;2.402;2024-01-30T01:30:31;12.00;;;8.70;;
65853;SDS011;52627;48.838;2.402;2024-01-30T01:33:13;12.70;;;8.90;;
65853;SDS011;52627;48.838;2.402;2024-01-30T01:35:43;12.10;;;8.30;;
65853;SDS011;52627;48.838;2.402;2024-01-30T01:38:11;15.30;;;9.10;;
65853;SDS011;52627;48.838;2.402;2024-01-30T01:40:38;12.90;;;9.20;;
65853;SDS011;52627;48.838;2.402;2024-01-30T01:43:16;11.80;;;8.60;;
65853;SDS011;52627;48.838;2.402;2024-01-30T01:45:45;14.40;;;9.50;;
65853;SDS011;52627;48.838;2.402;2024-01-30T01:48:13;11.90;;;8.60;;
65853;SDS011;52627;48.838;2.402;2024-01-30T01:50:41;10.90;;;8.20;;
65853;SDS011;52627;48.838;2.402;2024-01-30T01:53:30;12.50;;;8.20;;
65853;SDS011;52627;48.838;2.402;2024-01-30T01:55:58;14.50;;;8.40;;
65853;SDS011;52627;48.838;2.402;2024-01-30T01:58:27;12.40;;;8.30;;
65853;SDS011;52627;48.838;2.402;2024-01-30T02:00:57;12.50;;;8.20;;
65853;SDS011;52627;48.838;2.402;2024-01-30T02:03:36;12.50;;;8.30;;
65853;SDS011;52627;48.838;2.402;2024-01-30T02:06:04;12.20;;;8.20;;
65853;SDS011;52627;48.838;2.402;2024-01-30T02:08:32;11.20;;;7.90;;
65853;SDS011;52627;48.838;2.402;2024-01-30T02:11:00;10.40;;;7.70;;
65853;SDS011;52627;48.838;2.402;2024-01-30T02:13:40;12.20;;;8.30;;
65853;SDS011;52627;48.838;2.402;2024-01-30T02:16:10;12.30;;;8.00;;
65853;SDS011;52627;48.838;2.402;2024-01-30T02:18:37;11.90;;;8.40;;
65853;SDS011;52627;48.838;2.402;2024-01-30T02:21:09;10.90;;;7.90;;
65853;SDS011;52627;48.838;2.402;2024-01-30T02:23:37;12.30;;;7.80;;
65853;SDS011;52627;48.838;2.402;2024-01-30T02:26:06;11.20;;;7.90;;
65853;SDS011;52627;48.838;2.402;2024-01-30T02:28:34;11.60;;;6.90;;
65853;SDS011;52627;48.838;2.402;2024-01-30T02:31:01;13.30;;;7.30;;
65853;SDS011;52627;48.838;2.402;2024-01-30T02:33:29;11.50;;;7.20;;
65853;SDS011;52627;48.838;2.402;2024-01-30T02:35:56;12.60;;;7.00;;
65853;SDS011;52627;48.838;2.402;2024-01-30T02:38:24;12.20;;;7.20;;
65853;SDS011;52627;48.838;2.402;2024-01-30T02:40:54;9.60;;;6.90;;
65853;SDS011;52627;48.838;2.402;2024-01-30T02:43:23;11.40;;;7.30;;
65853;SDS011;52627;48.838;2.402;2024-01-30T02:45:50;13.90;;;7.60;;
65853;SDS011;52627;48.838;2.402;2024-01-30T02:48:18;10.80;;;7.10;;
65853;SDS011;52627;48.838;2.402;2024-01-30T02:50:45;10.10;;;7.00;;
65853;SDS011;52627;48.838;2.402;2024-01-30T02:56:19;11.80;;;7.10;;
65853;SDS011;52627;48.838;2.402;2024-01-30T02:58:46;10.20;;;6.80;;
65853;SDS011;52627;48.838;2.402;2024-01-30T03:01:14;9.90;;;6.10;;
65853;SDS011;52627;48.838;2.402;2024-01-30T03:04:13;11.90;;;7.00;;
65853;SDS011;52627;48.838;2.402;2024-01-30T03:06:47;12.60;;;6.70;;
65853;SDS011;52627;48.838;2.402;2024-01-30T03:09:17;11.00;;;6.90;;
65853;SDS011;52627;48.838;2.402;2024-01-30T03:11:45;11.20;;;6.20;;
65853;SDS011;52627;48.838;2.402;2024-01-30T03:14:13;9.70;;;6.30;;
65853;SDS011;52627;48.838;2.402;2024-01-30T03:16:40;10.40;;;6.70;;
65853;SDS011;52627;48.838;2.402;2024-01-30T03:19:08;9.20;;;6.00;;
65853;SDS011;52627;48.838;2.402;2024-01-30T03:21:36;9.40;;;6.90;;
65853;SDS011;52627;48.838;2.402;2024-01-30T03:24:04;10.10;;;6.70;;
65853;SDS011;52627;48.838;2.402;2024-01-30T03:26:32;10.40;;;6.80;;
65853;SDS011;52627;48.838;2.402;2024-01-30T03:28:59;12.80;;;6.40;;
65853;SDS011;52627;48.838;2.402;2024-01-30T03:31:27;12.00;;;6.50;;
65853;SDS011;52627;48.838;2.402;2024-01-30T03:37:07;12.30;;;7.00;;
65853;SDS011;52627;48.838;2.402;2024-01-30T03:39:35;8.70;;;5.70;;
65853;SDS011;52627;48.838;2.402;2024-01-30T03:42:03;9.80;;;6.20;;
65853;SDS011;52627;48.838;2.402;2024-01-30T03:44:31;12.00;;;6.40;;
65853;SDS011;52627;48.838;2.402;2024-01-30T03:46:58;10.80;;;6.70;;
65853;SDS011;52627;48.838;2.402;2024-01-30T03:49:26;11.50;;;6.70;;
65853;SDS011;52627;48.838;2.402;2024-01-30T03:51:54;8.90;;;5.90;;
65853;SDS011;52627;48.838;2.402;2024-01-30T03:54:28;9.00;;;6.50;;
65853;SDS011;52627;48.838;2.402;2024-01-30T03:56:56;7.80;;;5.80;;
65853;SDS011;52627;48.838;2.402;2024-01-30T03:59:23;11.30;;;6.20;;
65853;SDS011;52627;48.838;2.402;2024-01-30T04:01:51;9.50;;;5.90;;
65853;SDS011;52627;48.838;2.402;2024-01-30T04:04:19;8.00;;;5.90;;
65853;SDS011;52627;48.838;2.402;2024-01-30T04:06:47;9.00;;;6.50;;
65853;SDS011;52627;48.838;2.402;2024-01-30T04:09:15;9.10;;;5.90;;
65853;SDS011;52627;48.838;2.402;2024-01-30T04:11:42;8.60;;;5.80;;
65853;SDS011;52627;48.838;2.402;2024-01-30T04:14:10;11.00;;;6.10;;
65853;SDS011;52627;48.838;2.402;2024-01-30T04:16:38;10.80;;;6.90;;
65853;SDS011;52627;48.838;2.402;2024-01-30T04:19:06;10.30;;;6.10;;
65853;SDS011;52627;48.838;2.402;2024-01-30T04:21:33;8.40;;;5.80;;
65853;SDS011;52627;48.838;2.402;2024-01-30T04:24:09;11.30;;;6.40;;
65853;SDS011;52627;48.838;2.402;2024-01-30T04:26:57;8.40;;;5.40;;
65853;SDS011;52627;48.838;2.402;2024-01-30T04:29:25;8.10;;;5.50;;
65853;SDS011;52627;48.838;2.402;2024-01-30T04:31:52;8.70;;;5.80;;
65853;SDS011;52627;48.838;2.402;2024-01-30T04:34:39;10.80;;;5.90;;
65853;SDS011;52627;48.838;2.402;2024-01-30T04:37:07;8.50;;;6.00;;
65853;SDS011;52627;48.838;2.402;2024-01-30T04:39:35;9.40;;;5.70;;
65853;SDS011;52627;48.838;2.402;2024-01-30T04:42:04;9.50;;;6.70;;
65853;SDS011;52627;48.838;2.402;2024-01-30T04:45:06;8.90;;;6.50;;
65853;SDS011;52627;48.838;2.402;2024-01-30T04:47:34;8.80;;;5.80;;
65853;SDS011;52627;48.838;2.402;2024-01-30T04:50:09;12.00;;;7.40;;
65853;SDS011;52627;48.838;2.402;2024-01-30T04:52:37;9.60;;;7.00;;
65853;SDS011;52627;48.838;2.402;2024-01-30T04:55:15;12.10;;;7.50;;
65853;SDS011;52627;48.838;2.402;2024-01-30T04:57:49;12.40;;;6.90;;
65853;SDS011;52627;48.838;2.402;2024-01-30T05:00:17;11.70;;;7.40;;
65853;SDS011;52627;48.838;2.402;2024-01-30T05:02:45;11.10;;;6.90;;
65853;SDS011;52627;48.838;2.402;2024-01-30T05:05:12;11.30;;;7.30;;
65853;SDS011;52627;48.838;2.402;2024-01-30T05:07:41;14.40;;;7.50;;
65853;SDS011;52627;48.838;2.402;2024-01-30T05:10:09;12.00;;;7.40;;
65853;SDS011;52627;48.838;2.402;2024-01-30T05:12:36;12.60;;;7.40;;
65853;SDS011;52627;48.838;2.402;2024-01-30T05:15:12;10.50;;;7.10;;
65853;SDS011;52627;48.838;2.402;2024-01-30T05:17:44;11.00;;;6.10;;
65853;SDS011;52627;48.838;2.402;2024-01-30T05:20:12;10.60;;;6.50;;
65853;SDS011;52627;48.838;2.402;2024-01-30T05:22:40;9.50;;;6.90;;
65853;SDS011;52627;48.838;2.402;2024-01-30T05:25:13;9.90;;;6.50;;
65853;SDS011;52627;48.838;2.402;2024-01-30T05:27:51;10.20;;;6.60;;
65853;SDS011;52627;48.838;2.402;2024-01-30T05:30:19;10.90;;;6.50;;
65853;SDS011;52627;48.838;2.402;2024-01-30T05:32:47;9.40;;;5.60;;
65853;SDS011;52627;48.838;2.402;2024-01-30T05:35:36;8.90;;;5.70;;
65853;SDS011;52627;48.838;2.402;2024-01-30T05:38:03;10.30;;;6.20;;
65853;SDS011;52627;48.838;2.402;2024-01-30T05:40:31;10.40;;;5.90;;
65853;SDS011;52627;48.838;2.402;2024-01-30T05:42:59;9.80;;;6.20;;
65853;SDS011;52627;48.838;2.402;2024-01-30T05:45:49;10.80;;;6.00;;
65853;SDS011;52627;48.838;2.402;2024-01-30T05:48:16;10.50;;;6.10;;
65853;SDS011;52627;48.838;2.402;2024-01-30T05:50:54;10.70;;;6.30;;
65853;SDS011;52627;48.838;2.402;2024-01-30T05:53:22;13.40;;;6.40;;
65853;SDS011;52627;48.838;2.402;2024-01-30T05:55:50;10.10;;;6.00;;
65853;SDS011;52627;48.838;2.402;2024-01-30T05:58:18;8.90;;;5.90;;
65853;SDS011;52627;48.838;2.402;2024-01-30T06:00:46;11.90;;;6.30;;
65853;SDS011;52627;48.838;2.402;2024-01-30T06:03:13;14.70;;;9.00;;
65853;SDS011;52627;48.838;2.402;2024-01-30T06:05:41;11.70;;;6.20;;
65853;SDS011;52627;48.838;2.402;2024-01-30T06:08:08;11.90;;;7.00;;
65853;SDS011;52627;48.838;2.402;2024-01-30T06:10:36;14.70;;;6.40;;
65853;SDS011;52627;48.838;2.402;2024-01-30T06:13:03;11.20;;;6.70;;
65853;SDS011;52627;48.838;2.402;2024-01-30T06:15:31;11.30;;;6.10;;
65853;SDS011;52627;48.838;2.402;2024-01-30T06:18:00;10.70;;;6.20;;
65853;SDS011;52627;48.838;2.402;2024-01-30T06:20:27;10.80;;;6.20;;
65853;SDS011;52627;48.838;2.402;2024-01-30T06:22:55;13.10;;;6.50;;
65853;SDS011;52627;48.838;2.402;2024-01-30T06:25:23;9.70;;;5.90;;
65853;SDS011;52627;48.838;2.402;2024-01-30T06:27:51;11.70;;;6.30;;
65853;SDS011;52627;48.838;2.402;2024-01-30T06:30:18;10.90;;;6.40;;
65853;SDS011;52627;48.838;2.402;2024-01-30T06:32:46;11.00;;;5.70;;
65853;SDS011;52627;48.838;2.402;2024-01-30T06:35:13;10.20;;;6.20;;
65853;SDS011;52627;48.838;2.402;2024-01-30T06:37:41;10.80;;;6.30;;
65853;SDS011;52627;48.838;2.402;2024-01-30T06:40:09;12.30;;;6.30;;
65853;SDS011;52627;48.838;2.402;2024-01-30T06:43:08;12.80;;;8.00;;
65853;SDS011;52627;48.838;2.402;2024-01-30T06:45:35;12.50;;;6.50;;
65853;SDS011;52627;48.838;2.402;2024-01-30T06:48:03;10.70;;;6.30;;
65853;SDS011;52627;48.838;2.402;2024-01-30T06:50:31;12.90;;;6.60;;
65853;SDS011;52627;48.838;2.402;2024-01-30T06:52:59;10.70;;;6.00;;
65853;SDS011;52627;48.838;2.402;2024-01-30T06:55:26;11.80;;;6.30;;
65853;SDS011;52627;48.838;2.402;2024-01-30T06:57:56;12.90;;;6.80;;
65853;SDS011;52627;48.838;2.402;2024-01-30T07:00:23;19.20;;;7.60;;
65853;SDS011;52627;48.838;2.402;2024-01-30T07:02:51;11.20;;;6.20;;
65853;SDS011;52627;48.838;2.402;2024-01-30T07:05:18;14.20;;;6.40;;
65853;SDS011;52627;48.838;2.402;2024-01-30T07:07:46;9.80;;;6.50;;
65853;SDS011;52627;48.838;2.402;2024-01-30T07:10:14;12.30;;;5.80;;
65853;SDS011;52627;48.838;2.402;2024-01-30T07:12:41;12.40;;;7.00;;
65853;SDS011;52627;48.838;2.402;2024-01-30T07:15:40;11.20;;;6.50;;
65853;SDS011;52627;48.838;2.402;2024-01-30T07:18:08;13.50;;;6.60;;
65853;SDS011;52627;48.838;2.402;2024-01-30T07:20:37;12.90;;;6.50;;
65853;SDS011;52627;48.838;2.402;2024-01-30T07:23:05;11.60;;;5.90;;
65853;SDS011;52627;48.838;2.402;2024-01-30T07:25:38;14.40;;;7.10;;
65853;SDS011;52627;48.838;2.402;2024-01-30T07:28:08;12.50;;;6.50;;
65853;SDS011;52627;48.838;2.402;2024-01-30T07:30:40;13.00;;;6.50;;
65853;SDS011;52627;48.838;2.402;2024-01-30T07:33:08;12.70;;;7.70;;
65853;SDS011;52627;48.838;2.402;2024-01-30T07:35:46;13.60;;;6.80;;
65853;SDS011;52627;48.838;2.402;2024-01-30T07:38:13;12.50;;;7.00;;
65853;SDS011;52627;48.838;2.402;2024-01-30T07:40:41;13.80;;;6.90;;
65853;SDS011;52627;48.838;2.402;2024-01-30T07:43:09;14.10;;;6.40;;
65853;SDS011;52627;48.838;2.402;2024-01-30T07:45:56;15.40;;;7.00;;
65853;SDS011;52627;48.838;2.402;2024-01-30T07:48:24;13.70;;;6.70;;
65853;SDS011;52627;48.838;2.402;2024-01-30T07:50:51;12.60;;;6.50;;
65853;SDS011;52627;48.838;2.402;2024-01-30T07:53:20;11.00;;;6.70;;
65853;SDS011;52627;48.838;2.402;2024-01-30T07:56:06;12.80;;;7.10;;
65853;SDS011;52627;48.838;2.402;2024-01-30T07:58:34;12.00;;;6.30;;
65853;SDS011;52627;48.838;2.402;2024-01-30T08:01:02;10.40;;;5.90;;
65853;SDS011;52627;48.838;2.402;2024-01-30T08:03:44;11.00;;;6.20;;
65853;SDS011;52627;48.838;2.402;2024-01-30T08:06:11;18.40;;;8.10;;
65853;SDS011;52627;48.838;2.402;2024-01-30T08:08:43;14.10;;;8.20;;
65853;SDS011;52627;48.838;2.402;2024-01-30T08:11:11;19.20;;;9.40;;
65853;SDS011;52627;48.838;2.402;2024-01-30T08:13:39;13.20;;;6.70;;
65853;SDS011;52627;48.838;2.402;2024-01-30T08:16:28;14.80;;;6.80;;
65853;SDS011;52627;48.838;2.402;2024-01-30T08:18:56;14.80;;;7.40;;
65853;SDS011;52627;48.838;2.402;2024-01-30T08:21:25;12.00;;;6.90;;
65853;SDS011;52627;48.838;2.402;2024-01-30T08:23:52;13.00;;;6.90;;
65853;SDS011;52627;48.838;2.402;2024-01-30T08:26:23;12.70;;;7.10;;
65853;SDS011;52627;48.838;2.402;2024-01-30T08:29:03;12.90;;;6.90;;
65853;SDS011;52627;48.838;2.402;2024-01-30T08:31:31;19.40;;;8.00;;
65853;SDS011;52627;48.838;2.402;2024-01-30T08:33:58;15.70;;;7.50;;
65853;SDS011;52627;48.838;2.402;2024-01-30T08:36:26;11.20;;;6.70;;
65853;SDS011;52627;48.838;2.402;2024-01-30T08:38:54;12.30;;;6.50;;
65853;SDS011;52627;48.838;2.402;2024-01-30T08:41:28;17.20;;;7.10;;
65853;SDS011;52627;48.838;2.402;2024-01-30T08:43:56;14.30;;;6.70;;
65853;SDS011;52627;48.838;2.402;2024-01-30T08:46:27;11.60;;;7.20;;
65853;SDS011;52627;48.838;2.402;2024-01-30T08:48:59;12.90;;;6.70;;
65853;SDS011;52627;48.838;2.402;2024-01-30T08:51:33;12.80;;;6.90;;
65853;SDS011;52627;48.838;2.402;2024-01-30T08:54:02;14.70;;;7.60;;
65853;SDS011;52627;48.838;2.402;2024-01-30T08:56:30;12.40;;;6.50;;
65853;SDS011;52627;48.838;2.402;2024-01-30T08:58:57;15.20;;;6.90;;
65853;SDS011;52627;48.838;2.402;2024-01-30T09:01:25;11.40;;;6.40;;
65853;SDS011;52627;48.838;2.402;2024-01-30T09:03:54;14.30;;;7.20;;
65853;SDS011;52627;48.838;2.402;2024-01-30T09:06:30;15.10;;;7.00;;
65853;SDS011;52627;48.838;2.402;2024-01-30T09:08:57;12.20;;;6.20;;
65853;SDS011;52627;48.838;2.402;2024-01-30T09:11:26;15.20;;;7.00;;
65853;SDS011;52627;48.838;2.402;2024-01-30T09:13:54;15.80;;;6.90;;
65853;SDS011;52627;48.838;2.402;2024-01-30T09:16:21;12.60;;;7.20;;
65853;SDS011;52627;48.838;2.402;2024-01-30T09:18:49;14.30;;;7.30;;
65853;SDS011;52627;48.838;2.402;2024-01-30T09:21:17;11.00;;;6.50;;
65853;SDS011;52627;48.838;2.402;2024-01-30T09:23:44;16.80;;;7.30;;
65853;SDS011;52627;48.838;2.402;2024-01-30T09:26:12;14.50;;;7.10;;
65853;SDS011;52627;48.838;2.402;2024-01-30T09:28:40;15.90;;;7.60;;
65853;SDS011;52627;48.838;2.402;2024-01-30T09:31:10;15.10;;;7.10;;
65853;SDS011;52627;48.838;2.402;2024-01-30T09:33:38;13.70;;;7.20;;
65853;SDS011;52627;48.838;2.402;2024-01-30T09:36:07;13.60;;;7.30;;
65853;SDS011;52627;48.838;2.402;2024-01-30T09:38:37;15.00;;;8.20;;
65853;SDS011;52627;48.838;2.402;2024-01-30T09:41:09;13.90;;;8.10;;
65853;SDS011;52627;48.838;2.402;2024-01-30T09:43:38;15.40;;;7.90;;
65853;SDS011;52627;48.838;2.402;2024-01-30T09:46:12;13.40;;;7.70;;
65853;SDS011;52627;48.838;2.402;2024-01-30T09:48:43;16.10;;;8.50;;
65853;SDS011;52627;48.838;2.402;2024-01-30T09:51:11;14.00;;;8.40;;
65853;SDS011;52627;48.838;2.402;2024-01-30T09:53:39;15.40;;;8.90;;
65853;SDS011;52627;48.838;2.402;2024-01-30T09:56:07;16.70;;;7.50;;
65853;SDS011;52627;48.838;2.402;2024-01-30T09:58:50;16.30;;;7.80;;
65853;SDS011;52627;48.838;2.402;2024-01-30T10:01:18;16.10;;;7.60;;
65853;SDS011;52627;48.838;2.402;2024-01-30T10:03:46;12.50;;;7.60;;
65853;SDS011;52627;48.838;2.402;2024-01-30T10:06:14;16.40;;;8.40;;
65853;SDS011;52627;48.838;2.402;2024-01-30T10:08:42;12.50;;;7.20;;
65853;SDS011;52627;48.838;2.402;2024-01-30T10:11:10;13.90;;;7.20;;
65853;SDS011;52627;48.838;2.402;2024-01-30T10:13:39;14.50;;;6.80;;
65853;SDS011;52627;48.838;2.402;2024-01-30T10:16:07;12.30;;;6.80;;
65853;SDS011;52627;48.838;2.402;2024-01-30T10:18:35;14.80;;;7.70;;
65853;SDS011;52627;48.838;2.402;2024-01-30T10:21:03;15.80;;;7.60;;
65853;SDS011;52627;48.838;2.402;2024-01-30T10:23:33;13.20;;;7.60;;
65853;SDS011;52627;48.838;2.402;2024-01-30T10:26:04;16.70;;;8.10;;
65853;SDS011;52627;48.838;2.402;2024-01-30T10:28:31;16.20;;;7.80;;
65853;SDS011;52627;48.838;2.402;2024-01-30T10:30:59;18.40;;;7.80;;
65853;SDS011;52627;48.838;2.402;2024-01-30T10:33:32;17.50;;;7.60;;
65853;SDS011;52627;48.838;2.402;2024-01-30T10:36:04;16.60;;;7.60;;
65853;SDS011;52627;48.838;2.402;2024-01-30T10:38:33;15.40;;;8.20;;
65853;SDS011;52627;48.838;2.402;2024-01-30T10:41:11;17.20;;;7.80;;
65853;SDS011;52627;48.838;2.402;2024-01-30T10:43:41;12.60;;;7.20;;
65853;SDS011;52627;48.838;2.402;2024-01-30T10:46:19;16.60;;;8.40;;
65853;SDS011;52627;48.838;2.402;2024-01-30T10:48:59;14.40;;;8.10;;
65853;SDS011;52627;48.838;2.402;2024-01-30T10:51:27;18.90;;;8.90;;
65853;SDS011;52627;48.838;2.402;2024-01-30T10:54:06;23.10;;;9.30;;
65853;SDS011;52627;48.838;2.402;2024-01-30T10:56:50;18.20;;;7.80;;
65853;SDS011;52627;48.838;2.402;2024-01-30T10:59:19;14.60;;;8.10;;
65853;SDS011;52627;48.838;2.402;2024-01-30T11:01:51;16.10;;;8.00;;
65853;SDS011;52627;48.838;2.402;2024-01-30T11:04:19;16.30;;;9.30;;
65853;SDS011;52627;48.838;2.402;2024-01-30T11:06:49;17.00;;;8.60;;
65853;SDS011;52627;48.838;2.402;2024-01-30T11:09:19;17.80;;;8.80;;
65853;SDS011;52627;48.838;2.402;2024-01-30T11:11:59;16.50;;;8.60;;
65853;SDS011;52627;48.838;2.402;2024-01-30T11:14:31;15.30;;;7.90;;
65853;SDS011;52627;48.838;2.402;2024-01-30T11:16:59;18.10;;;8.90;;
65853;SDS011;52627;48.838;2.402;2024-01-30T11:19:30;24.30;;;10.10;;
65853;SDS011;52627;48.838;2.402;2024-01-30T11:21:59;14.80;;;8.50;;
65853;SDS011;52627;48.838;2.402;2024-01-30T11:24:27;16.90;;;8.50;;
65853;SDS011;52627;48.838;2.402;2024-01-30T11:27:19;19.20;;;9.10;;
65853;SDS011;52627;48.838;2.402;2024-01-30T11:29:50;15.70;;;7.60;;
65853;SDS011;52627;48.838;2.402;2024-01-30T11:34:51;17.30;;;8.70;;
65853;SDS011;52627;48.838;2.402;2024-01-30T11:37:37;17.80;;;7.60;;
65853;SDS011;52627;48.838;2.402;2024-01-30T11:40:08;13.70;;;8.00;;
65853;SDS011;52627;48.838;2.402;2024-01-30T11:42:45;16.90;;;7.70;;
65853;SDS011;52627;48.838;2.402;2024-01-30T11:45:17;17.80;;;8.80;;
65853;SDS011;52627;48.838;2.402;2024-01-30T11:47:45;15.90;;;7.50;;
65853;SDS011;52627;48.838;2.402;2024-01-30T11:50:12;18.00;;;7.70;;
65853;SDS011;52627;48.838;2.402;2024-01-30T11:52:41;18.00;;;8.50;;
65853;SDS011;52627;48.838;2.402;2024-01-30T11:55:10;20.90;;;7.90;;
65853;SDS011;52627;48.838;2.402;2024-01-30T11:57:50;15.40;;;6.90;;
65853;SDS011;52627;48.838;2.402;2024-01-30T12:00:19;13.60;;;6.20;;
65853;SDS011;52627;48.838;2.402;2024-01-30T12:02:52;15.70;;;6.60;;
65853;SDS011;52627;48.838;2.402;2024-01-30T12:05:24;10.80;;;6.10;;
65853;SDS011;52627;48.838;2.402;2024-01-30T12:08:24;12.20;;;4.90;;
65853;SDS011;52627;48.838;2.402;2024-01-30T12:10:57;9.30;;;4.70;;
65853;SDS011;52627;48.838;2.402;2024-01-30T12:13:33;8.60;;;4.50;;
65853;SDS011;52627;48.838;2.402;2024-01-30T12:16:01;8.10;;;3.60;;
65853;SDS011;52627;48.838;2.402;2024-01-30T12:18:29;8.50;;;4.10;;
65853;SDS011;52627;48.838;2.402;2024-01-30T12:21:01;7.40;;;3.60;;
65853;SDS011;52627;48.838;2.402;2024-01-30T12:23:28;7.70;;;3.20;;
65853;SDS011;52627;48.838;2.402;2024-01-30T12:26:03;8.80;;;3.40;;
65853;SDS011;52627;48.838;2.402;2024-01-30T12:28:34;7.20;;;3.50;;
65853;SDS011;52627;48.838;2.402;2024-01-30T12:31:04;7.60;;;2.90;;
65853;SDS011;52627;48.838;2.402;2024-01-30T12:33:32;5.90;;;2.40;;
65853;SDS011;52627;48.838;2.402;2024-01-30T12:36:28;6.50;;;2.60;;
65853;SDS011;52627;48.838;2.402;2024-01-30T12:38:58;5.70;;;2.10;;
65853;SDS011;52627;48.838;2.402;2024-01-30T12:41:26;8.10;;;2.50;;
65853;SDS011;52627;48.838;2.402;2024-01-30T12:43:57;6.10;;;2.40;;
65853;SDS011;52627;48.838;2.402;2024-01-30T12:46:29;5.90;;;2.20;;
65853;SDS011;52627;48.838;2.402;2024-01-30T12:48:57;5.60;;;2.40;;
65853;SDS011;52627;48.838;2.402;2024-01-30T12:51:25;9.00;;;2.70;;
65853;SDS011;52627;48.838;2.402;2024-01-30T12:53:53;9.00;;;2.70;;
65853;SDS011;52627;48.838;2.402;2024-01-30T12:56:20;5.30;;;2.30;;
65853;SDS011;52627;48.838;2.402;2024-01-30T12:58:49;7.50;;;2.20;;
65853;SDS011;52627;48.838;2.402;2024-01-30T13:01:21;5.20;;;2.10;;
65853;SDS011;52627;48.838;2.402;2024-01-30T13:03:50;5.10;;;2.30;;
65853;SDS011;52627;48.838;2.402;2024-01-30T13:06:18;7.30;;;2.70;;
65853;SDS011;52627;48.838;2.402;2024-01-30T13:09:04;8.00;;;2.50;;
65853;SDS011;52627;48.838;2.402;2024-01-30T13:11:33;5.50;;;2.40;;
65853;SDS011;52627;48.838;2.402;2024-01-30T13:14:02;6.30;;;2.90;;
65853;SDS011;52627;48.838;2.402;2024-01-30T13:16:30;4.70;;;2.50;;
65853;SDS011;52627;48.838;2.402;2024-01-30T13:19:03;5.80;;;2.20;;
65853;SDS011;52627;48.838;2.402;2024-01-30T13:21:31;6.00;;;2.30;;
65853;SDS011;52627;48.838;2.402;2024-01-30T13:24:02;5.90;;;2.30;;
65853;SDS011;52627;48.838;2.402;2024-01-30T13:26:31;5.20;;;2.40;;
65853;SDS011;52627;48.838;2.402;2024-01-30T13:28:59;5.40;;;2.40;;
65853;SDS011;52627;48.838;2.402;2024-01-30T13:31:27;6.20;;;2.20;;
65853;SDS011;52627;48.838;2.402;2024-01-30T13:34:05;10.30;;;3.00;;
65853;SDS011;52627;48.838;2.402;2024-01-30T13:36:35;6.80;;;2.80;;
65853;SDS011;52627;48.838;2.402;2024-01-30T13:39:03;7.70;;;2.60;;
65853;SDS011;52627;48.838;2.402;2024-01-30T13:41:32;6.30;;;2.70;;
65853;SDS011;52627;48.838;2.402;2024-01-30T13:43:59;6.90;;;2.70;;
65853;SDS011;52627;48.838;2.402;2024-01-30T13:46:27;4.90;;;2.20;;
65853;SDS011;52627;48.838;2.402;2024-01-30T13:48:55;5.10;;;2.60;;
65853;SDS011;52627;48.838;2.402;2024-01-30T13:51:23;7.00;;;2.50;;
65853;SDS011;52627;48.838;2.402;2024-01-30T13:53:51;5.30;;;2.30;;
65853;SDS011;52627;48.838;2.402;2024-01-30T13:56:22;5.40;;;2.80;;
65853;SDS011;52627;48.838;2.402;2024-01-30T13:58:49;10.00;;;3.00;;
65853;SDS011;52627;48.838;2.402;2024-01-30T14:01:17;7.90;;;2.50;;
65853;SDS011;52627;48.838;2.402;2024-01-30T14:03:45;5.20;;;2.50;;
65853;SDS011;52627;48.838;2.402;2024-01-30T14:06:13;6.60;;;2.80;;
65853;SDS011;52627;48.838;2.402;2024-01-30T14:08:41;4.20;;;1.80;;
65853;SDS011;52627;48.838;2.402;2024-01-30T14:11:14;4.80;;;2.10;;
65853;SDS011;52627;48.838;2.402;2024-01-30T14:13:42;6.30;;;2.00;;
65853;SDS011;52627;48.838;2.402;2024-01-30T14:16:09;6.20;;;2.10;;
65853;SDS011;52627;48.838;2.402;2024-01-30T14:18:37;6.70;;;2.00;;
65853;SDS011;52627;48.838;2.402;2024-01-30T14:21:05;4.10;;;1.80;;
65853;SDS011;52627;48.838;2.402;2024-01-30T14:23:34;4.40;;;1.80;;
65853;SDS011;52627;48.838;2.402;2024-01-30T14:26:01;6.60;;;2.20;;
65853;SDS011;52627;48.838;2.402;2024-01-30T14:28:29;3.10;;;1.60;;
65853;SDS011;52627;48.838;2.402;2024-01-30T14:30:56;5.20;;;1.80;;
65853;SDS011;52627;48.838;2.402;2024-01-30T14:33:24;4.60;;;1.80;;
65853;SDS011;52627;48.838;2.402;2024-01-30T14:35:53;5.70;;;1.80;;
65853;SDS011;52627;48.838;2.402;2024-01-30T14:38:21;8.10;;;2.60;;
65853;SDS011;52627;48.838;2.402;2024-01-30T14:40:49;6.70;;;2.10;;
65853;SDS011;52627;48.838;2.402;2024-01-30T14:43:16;4.20;;;1.70;;
65853;SDS011;52627;48.838;2.402;2024-01-30T14:45:44;4.70;;;1.50;;
65853;SDS011;52627;48.838;2.402;2024-01-30T14:48:15;4.40;;;1.60;;
65853;SDS011;52627;48.838;2.402;2024-01-30T14:50:43;4.70;;;1.80;;
65853;SDS011;52627;48.838;2.402;2024-01-30T14:53:10;4.10;;;1.80;;
65853;SDS011;52627;48.838;2.402;2024-01-30T14:55:38;3.90;;;1.60;;
65853;SDS011;52627;48.838;2.402;2024-01-30T14:58:05;3.70;;;1.50;;
65853;SDS011;52627;48.838;2.402;2024-01-30T15:00:33;5.60;;;1.80;;
65853;SDS011;52627;48.838;2.402;2024-01-30T15:03:01;5.20;;;1.60;;
65853;SDS011;52627;48.838;2.402;2024-01-30T15:05:28;4.90;;;1.50;;
65853;SDS011;52627;48.838;2.402;2024-01-30T15:07:56;4.80;;;1.30;;